sensor_id;sensor_type;location;lat;lon;timestamp;P1;durP1;ratioP1;P2;durP2;ratioP2
75087;SDS011;63664;44.868;40.600;2023-06-10T00:51:26;10.48;;;2.53;;
75087;SDS011;63664;44.868;40.600;2023-06-10T00:53:52;7.93;;;2.03;;
75087;SDS011;63664;44.868;40.600;2023-06-10T00:56:22;6.22;;;2.47;;
75087;SDS011;63664;44.868;40.600;2023-06-10T00:58:51;5.90;;;2.05;;
75087;SDS011;63664;44.868;40.600;2023-06-10T01:01:20;10.05;;;2.30;;
75087;SDS011;63664;44.868;40.600;2023-06-10T01:03:46;5.53;;;1.98;;
75087;SDS011;63664;44.868;40.600;2023-06-10T01:11:51;7.40;;;2.03;;
75087;SDS011;63664;44.868;40.600;2023-06-10T01:14:46;6.88;;;1.98;;
75087;SDS011;63664;44.868;40.600;2023-06-10T01:17:14;7.75;;;2.15;;
75087;SDS011;63664;44.868;40.600;2023-06-10T01:19:42;6.22;;;1.73;;
75087;SDS011;63664;44.868;40.600;2023-06-10T01:22:10;8.18;;;2.22;;
75087;SDS011;63664;44.868;40.600;2023-06-10T01:24:42;5.78;;;2.15;;
75087;SDS011;63664;44.868;40.600;2023-06-10T01:27:12;8.40;;;2.35;;
75087;SDS011;63664;44.868;40.600;2023-06-10T01:29:45;6.93;;;1.85;;
75087;SDS011;63664;44.868;40.600;2023-06-10T01:32:37;7.22;;;2.30;;
75087;SDS011;63664;44.868;40.600;2023-06-10T01:35:07;8.85;;;2.00;;
75087;SDS011;63664;44.868;40.600;2023-06-10T01:40:08;4.80;;;2.05;;
75087;SDS011;63664;44.868;40.600;2023-06-10T01:42:43;9.60;;;2.08;;
75087;SDS011;63664;44.868;40.600;2023-06-10T01:55:39;6.60;;;1.88;;
75087;SDS011;63664;44.868;40.600;2023-06-10T01:58:05;8.50;;;2.25;;
75087;SDS011;63664;44.868;40.600;2023-06-10T02:00:35;5.75;;;2.13;;
75087;SDS011;63664;44.868;40.600;2023-06-10T02:03:05;11.57;;;2.40;;
75087;SDS011;63664;44.868;40.600;2023-06-10T02:05:31;4.22;;;1.70;;
75087;SDS011;63664;44.868;40.600;2023-06-10T02:08:00;8.82;;;2.50;;
75087;SDS011;63664;44.868;40.600;2023-06-10T02:10:27;7.10;;;2.25;;
75087;SDS011;63664;44.868;40.600;2023-06-10T02:12:57;7.40;;;1.95;;
75087;SDS011;63664;44.868;40.600;2023-06-10T02:15:23;6.10;;;1.90;;
75087;SDS011;63664;44.868;40.600;2023-06-10T02:17:52;9.00;;;2.00;;
75087;SDS011;63664;44.868;40.600;2023-06-10T02:20:20;4.53;;;1.90;;
75087;SDS011;63664;44.868;40.600;2023-06-10T02:22:46;4.35;;;1.42;;
75087;SDS011;63664;44.868;40.600;2023-06-10T02:25:13;6.13;;;1.90;;
75087;SDS011;63664;44.868;40.600;2023-06-10T02:27:41;9.20;;;2.28;;
75087;SDS011;63664;44.868;40.600;2023-06-10T02:30:08;8.00;;;2.38;;
75087;SDS011;63664;44.868;40.600;2023-06-10T02:32:39;6.65;;;1.90;;
75087;SDS011;63664;44.868;40.600;2023-06-10T02:35:06;10.95;;;2.10;;
75087;SDS011;63664;44.868;40.600;2023-06-10T02:37:33;5.13;;;1.90;;
75087;SDS011;63664;44.868;40.600;2023-06-10T02:39:59;5.45;;;2.13;;
75087;SDS011;63664;44.868;40.600;2023-06-10T02:42:26;4.63;;;2.00;;
75087;SDS011;63664;44.868;40.600;2023-06-10T02:44:53;10.18;;;2.03;;
75087;SDS011;63664;44.868;40.600;2023-06-10T02:47:33;5.25;;;1.80;;
75087;SDS011;63664;44.868;40.600;2023-06-10T02:50:02;4.75;;;2.17;;
75087;SDS011;63664;44.868;40.600;2023-06-10T02:52:33;13.38;;;2.00;;
75087;SDS011;63664;44.868;40.600;2023-06-10T02:55:00;2.88;;;1.63;;
75087;SDS011;63664;44.868;40.600;2023-06-10T02:57:26;5.85;;;1.85;;
75087;SDS011;63664;44.868;40.600;2023-06-10T02:59:56;10.23;;;2.25;;
75087;SDS011;63664;44.868;40.600;2023-06-10T03:02:25;4.35;;;2.40;;
75087;SDS011;63664;44.868;40.600;2023-06-10T03:04:55;10.68;;;2.33;;
75087;SDS011;63664;44.868;40.600;2023-06-10T03:07:22;2.63;;;1.70;;
75087;SDS011;63664;44.868;40.600;2023-06-10T03:09:55;8.20;;;1.67;;
75087;SDS011;63664;44.868;40.600;2023-06-10T03:12:21;5.50;;;2.25;;
75087;SDS011;63664;44.868;40.600;2023-06-10T03:14:50;6.70;;;2.17;;
75087;SDS011;63664;44.868;40.600;2023-06-10T03:17:20;7.00;;;2.30;;
75087;SDS011;63664;44.868;40.600;2023-06-10T03:19:46;8.48;;;2.00;;
75087;SDS011;63664;44.868;40.600;2023-06-10T03:22:16;12.40;;;2.75;;
75087;SDS011;63664;44.868;40.600;2023-06-10T03:24:58;10.05;;;2.17;;
75087;SDS011;63664;44.868;40.600;2023-06-10T03:27:27;10.02;;;2.97;;
75087;SDS011;63664;44.868;40.600;2023-06-10T03:29:57;8.57;;;2.30;;
75087;SDS011;63664;44.868;40.600;2023-06-10T03:32:24;7.75;;;2.80;;
75087;SDS011;63664;44.868;40.600;2023-06-10T03:34:57;8.00;;;2.72;;
75087;SDS011;63664;44.868;40.600;2023-06-10T03:37:25;4.38;;;2.22;;
75087;SDS011;63664;44.868;40.600;2023-06-10T03:39:56;11.80;;;2.70;;
75087;SDS011;63664;44.868;40.600;2023-06-10T03:42:23;10.38;;;2.25;;
75087;SDS011;63664;44.868;40.600;2023-06-10T03:44:50;6.72;;;2.47;;
75087;SDS011;63664;44.868;40.600;2023-06-10T03:47:18;4.00;;;1.80;;
75087;SDS011;63664;44.868;40.600;2023-06-10T03:49:45;7.88;;;2.60;;
75087;SDS011;63664;44.868;40.600;2023-06-10T03:54:41;8.43;;;2.28;;
75087;SDS011;63664;44.868;40.600;2023-06-10T03:57:13;8.95;;;2.22;;
75087;SDS011;63664;44.868;40.600;2023-06-10T03:59:41;5.68;;;2.15;;
75087;SDS011;63664;44.868;40.600;2023-06-10T04:02:13;6.45;;;2.17;;
75087;SDS011;63664;44.868;40.600;2023-06-10T04:07:13;6.82;;;2.60;;
75087;SDS011;63664;44.868;40.600;2023-06-10T04:09:40;6.30;;;2.42;;
75087;SDS011;63664;44.868;40.600;2023-06-10T04:12:09;9.30;;;3.30;;
75087;SDS011;63664;44.868;40.600;2023-06-10T04:14:37;10.65;;;2.97;;
75087;SDS011;63664;44.868;40.600;2023-06-10T04:17:06;4.25;;;2.30;;
75087;SDS011;63664;44.868;40.600;2023-06-10T04:19:37;9.40;;;2.40;;
75087;SDS011;63664;44.868;40.600;2023-06-10T04:22:08;9.00;;;2.20;;
75087;SDS011;63664;44.868;40.600;2023-06-10T04:24:37;6.13;;;2.13;;
75087;SDS011;63664;44.868;40.600;2023-06-10T04:27:04;6.72;;;2.33;;
75087;SDS011;63664;44.868;40.600;2023-06-10T04:29:35;4.07;;;2.50;;
75087;SDS011;63664;44.868;40.600;2023-06-10T04:32:02;6.28;;;2.67;;
75087;SDS011;63664;44.868;40.600;2023-06-10T04:34:30;5.63;;;2.45;;
75087;SDS011;63664;44.868;40.600;2023-06-10T04:36:59;4.82;;;2.30;;
75087;SDS011;63664;44.868;40.600;2023-06-10T04:39:26;5.03;;;2.40;;
75087;SDS011;63664;44.868;40.600;2023-06-10T04:42:00;5.50;;;2.13;;
75087;SDS011;63664;44.868;40.600;2023-06-10T04:44:28;8.63;;;2.65;;
75087;SDS011;63664;44.868;40.600;2023-06-10T04:46:57;4.78;;;2.00;;
75087;SDS011;63664;44.868;40.600;2023-06-10T04:49:24;7.60;;;2.50;;
75087;SDS011;63664;44.868;40.600;2023-06-10T04:51:52;13.43;;;2.85;;
75087;SDS011;63664;44.868;40.600;2023-06-10T04:54:24;6.63;;;2.13;;
75087;SDS011;63664;44.868;40.600;2023-06-10T04:56:54;3.65;;;1.90;;
75087;SDS011;63664;44.868;40.600;2023-06-10T04:59:25;5.20;;;2.10;;
75087;SDS011;63664;44.868;40.600;2023-06-10T05:01:54;7.63;;;2.35;;
75087;SDS011;63664;44.868;40.600;2023-06-10T05:04:20;4.55;;;2.13;;
75087;SDS011;63664;44.868;40.600;2023-06-10T05:06:49;9.48;;;2.78;;
75087;SDS011;63664;44.868;40.600;2023-06-10T05:09:15;8.98;;;2.92;;
75087;SDS011;63664;44.868;40.600;2023-06-10T05:11:42;7.18;;;2.53;;
75087;SDS011;63664;44.868;40.600;2023-06-10T05:14:10;4.90;;;2.47;;
75087;SDS011;63664;44.868;40.600;2023-06-10T05:16:42;7.07;;;2.95;;
75087;SDS011;63664;44.868;40.600;2023-06-10T05:19:09;9.65;;;2.67;;
75087;SDS011;63664;44.868;40.600;2023-06-10T05:21:35;5.03;;;2.13;;
75087;SDS011;63664;44.868;40.600;2023-06-10T05:24:01;2.97;;;2.00;;
75087;SDS011;63664;44.868;40.600;2023-06-10T05:26:30;6.75;;;2.50;;
75087;SDS011;63664;44.868;40.600;2023-06-10T05:29:01;6.47;;;2.70;;
75087;SDS011;63664;44.868;40.600;2023-06-10T05:31:32;7.63;;;2.45;;
75087;SDS011;63664;44.868;40.600;2023-06-10T05:33:58;5.55;;;2.28;;
75087;SDS011;63664;44.868;40.600;2023-06-10T05:36:27;5.30;;;2.20;;
75087;SDS011;63664;44.868;40.600;2023-06-10T05:38:56;4.50;;;2.20;;
75087;SDS011;63664;44.868;40.600;2023-06-10T05:41:22;7.25;;;2.38;;
75087;SDS011;63664;44.868;40.600;2023-06-10T05:43:53;7.05;;;2.00;;
75087;SDS011;63664;44.868;40.600;2023-06-10T05:46:22;5.90;;;2.30;;
75087;SDS011;63664;44.868;40.600;2023-06-10T05:48:50;4.80;;;2.00;;
75087;SDS011;63664;44.868;40.600;2023-06-10T05:51:16;6.43;;;2.20;;
75087;SDS011;63664;44.868;40.600;2023-06-10T05:53:47;3.88;;;1.98;;
75087;SDS011;63664;44.868;40.600;2023-06-10T05:56:21;4.55;;;2.20;;
75087;SDS011;63664;44.868;40.600;2023-06-10T06:01:17;5.57;;;2.47;;
75087;SDS011;63664;44.868;40.600;2023-06-10T06:03:45;6.43;;;1.92;;
75087;SDS011;63664;44.868;40.600;2023-06-10T06:06:14;8.18;;;2.20;;
75087;SDS011;63664;44.868;40.600;2023-06-10T06:08:46;4.10;;;2.30;;
75087;SDS011;63664;44.868;40.600;2023-06-10T06:11:12;4.97;;;2.25;;
75087;SDS011;63664;44.868;40.600;2023-06-10T06:13:40;7.95;;;2.45;;
75087;SDS011;63664;44.868;40.600;2023-06-10T06:16:13;7.10;;;2.47;;
75087;SDS011;63664;44.868;40.600;2023-06-10T06:18:40;26.17;;;3.40;;
75087;SDS011;63664;44.868;40.600;2023-06-10T06:21:07;12.38;;;2.47;;
75087;SDS011;63664;44.868;40.600;2023-06-10T06:23:33;5.25;;;2.50;;
75087;SDS011;63664;44.868;40.600;2023-06-10T06:26:02;7.53;;;2.30;;
75087;SDS011;63664;44.868;40.600;2023-06-10T06:28:28;6.07;;;2.30;;
75087;SDS011;63664;44.868;40.600;2023-06-10T06:30:55;3.20;;;2.30;;
75087;SDS011;63664;44.868;40.600;2023-06-10T06:33:22;4.80;;;2.30;;
75087;SDS011;63664;44.868;40.600;2023-06-10T06:35:48;4.68;;;2.15;;
75087;SDS011;63664;44.868;40.600;2023-06-10T06:40:44;3.88;;;2.00;;
75087;SDS011;63664;44.868;40.600;2023-06-10T06:43:15;3.13;;;2.20;;
75087;SDS011;63664;44.868;40.600;2023-06-10T09:08:17;4.25;;;2.25;;
75087;SDS011;63664;44.868;40.600;2023-06-10T09:10:47;3.38;;;2.42;;
75087;SDS011;63664;44.868;40.600;2023-06-10T09:13:15;7.18;;;3.10;;
75087;SDS011;63664;44.868;40.600;2023-06-10T09:15:44;9.13;;;2.63;;
75087;SDS011;63664;44.868;40.600;2023-06-10T09:18:13;6.80;;;3.10;;
75087;SDS011;63664;44.868;40.600;2023-06-10T09:20:41;5.05;;;2.67;;
75087;SDS011;63664;44.868;40.600;2023-06-10T09:23:09;5.70;;;3.95;;
75087;SDS011;63664;44.868;40.600;2023-06-10T09:25:38;6.50;;;3.13;;
75087;SDS011;63664;44.868;40.600;2023-06-10T09:28:12;6.82;;;3.22;;
75087;SDS011;63664;44.868;40.600;2023-06-10T09:30:42;8.90;;;3.60;;
75087;SDS011;63664;44.868;40.600;2023-06-10T09:33:14;6.95;;;3.90;;
75087;SDS011;63664;44.868;40.600;2023-06-10T09:35:48;5.60;;;2.95;;
75087;SDS011;63664;44.868;40.600;2023-06-10T09:38:20;7.00;;;3.45;;
75087;SDS011;63664;44.868;40.600;2023-06-10T09:40:51;6.70;;;3.35;;
75087;SDS011;63664;44.868;40.600;2023-06-10T09:43:19;4.47;;;3.00;;
75087;SDS011;63664;44.868;40.600;2023-06-10T09:45:50;4.32;;;2.97;;
75087;SDS011;63664;44.868;40.600;2023-06-10T09:48:24;4.90;;;3.00;;
75087;SDS011;63664;44.868;40.600;2023-06-10T09:50:53;4.93;;;2.95;;
75087;SDS011;63664;44.868;40.600;2023-06-10T09:53:25;5.53;;;3.13;;
75087;SDS011;63664;44.868;40.600;2023-06-10T09:55:52;6.50;;;3.22;;
75087;SDS011;63664;44.868;40.600;2023-06-10T09:58:32;3.55;;;2.63;;
75087;SDS011;63664;44.868;40.600;2023-06-10T10:01:11;5.65;;;2.70;;
75087;SDS011;63664;44.868;40.600;2023-06-10T10:03:49;4.55;;;2.38;;
75087;SDS011;63664;44.868;40.600;2023-06-10T10:06:22;4.65;;;3.10;;
75087;SDS011;63664;44.868;40.600;2023-06-10T10:08:56;7.68;;;3.20;;
75087;SDS011;63664;44.868;40.600;2023-06-10T10:11:23;5.90;;;2.55;;
75087;SDS011;63664;44.868;40.600;2023-06-10T10:13:52;7.03;;;2.60;;
75087;SDS011;63664;44.868;40.600;2023-06-10T10:16:19;6.25;;;2.47;;
75087;SDS011;63664;44.868;40.600;2023-06-10T10:18:59;7.03;;;2.55;;
75087;SDS011;63664;44.868;40.600;2023-06-10T10:21:32;3.55;;;2.20;;
75087;SDS011;63664;44.868;40.600;2023-06-10T10:24:14;5.78;;;2.15;;
75087;SDS011;63664;44.868;40.600;2023-06-10T10:26:46;6.78;;;2.30;;
75087;SDS011;63664;44.868;40.600;2023-06-10T10:29:29;8.60;;;2.20;;
75087;SDS011;63664;44.868;40.600;2023-06-10T10:31:59;4.82;;;2.20;;
75087;SDS011;63664;44.868;40.600;2023-06-10T10:35:12;4.53;;;2.05;;
75087;SDS011;63664;44.868;40.600;2023-06-10T10:37:40;4.43;;;2.55;;
75087;SDS011;63664;44.868;40.600;2023-06-10T10:40:12;6.65;;;2.67;;
75087;SDS011;63664;44.868;40.600;2023-06-10T10:42:42;7.22;;;3.10;;
75087;SDS011;63664;44.868;40.600;2023-06-10T10:45:15;7.07;;;2.78;;
75087;SDS011;63664;44.868;40.600;2023-06-10T10:47:43;6.22;;;2.75;;
75087;SDS011;63664;44.868;40.600;2023-06-10T10:50:15;5.05;;;2.45;;
75087;SDS011;63664;44.868;40.600;2023-06-10T10:53:01;4.93;;;2.78;;
75087;SDS011;63664;44.868;40.600;2023-06-10T10:55:30;4.25;;;2.30;;
75087;SDS011;63664;44.868;40.600;2023-06-10T11:00:33;6.60;;;3.72;;
75087;SDS011;63664;44.868;40.600;2023-06-10T11:03:15;6.20;;;2.95;;
75087;SDS011;63664;44.868;40.600;2023-06-10T11:05:47;6.63;;;3.20;;
75087;SDS011;63664;44.868;40.600;2023-06-10T11:10:57;7.05;;;2.35;;
75087;SDS011;63664;44.868;40.600;2023-06-10T11:13:25;4.10;;;2.55;;
75087;SDS011;63664;44.868;40.600;2023-06-10T11:16:00;6.13;;;2.28;;
75087;SDS011;63664;44.868;40.600;2023-06-10T11:18:34;8.18;;;3.22;;
75087;SDS011;63664;44.868;40.600;2023-06-10T11:21:07;6.35;;;2.60;;
75087;SDS011;63664;44.868;40.600;2023-06-10T11:23:39;3.17;;;2.28;;
75087;SDS011;63664;44.868;40.600;2023-06-10T11:28:41;5.07;;;2.75;;
75087;SDS011;63664;44.868;40.600;2023-06-10T11:31:38;6.40;;;2.35;;
75087;SDS011;63664;44.868;40.600;2023-06-10T11:34:12;4.15;;;2.28;;
75087;SDS011;63664;44.868;40.600;2023-06-10T11:36:40;6.28;;;2.78;;
75087;SDS011;63664;44.868;40.600;2023-06-10T11:39:11;6.32;;;2.90;;
75087;SDS011;63664;44.868;40.600;2023-06-10T11:41:38;3.50;;;2.30;;
75087;SDS011;63664;44.868;40.600;2023-06-10T11:46:37;3.85;;;2.40;;
75087;SDS011;63664;44.868;40.600;2023-06-10T11:49:07;3.70;;;2.10;;
75087;SDS011;63664;44.868;40.600;2023-06-10T11:51:39;24.90;;;3.65;;
75087;SDS011;63664;44.868;40.600;2023-06-10T11:54:09;3.67;;;2.50;;
75087;SDS011;63664;44.868;40.600;2023-06-10T11:56:36;4.95;;;3.10;;
75087;SDS011;63664;44.868;40.600;2023-06-10T11:59:05;7.95;;;2.75;;
75087;SDS011;63664;44.868;40.600;2023-06-10T12:01:36;7.30;;;3.50;;
75087;SDS011;63664;44.868;40.600;2023-06-10T12:04:06;6.18;;;2.95;;
75087;SDS011;63664;44.868;40.600;2023-06-10T12:09:06;3.85;;;2.92;;
75087;SDS011;63664;44.868;40.600;2023-06-10T12:11:42;7.88;;;3.63;;
75087;SDS011;63664;44.868;40.600;2023-06-10T12:14:09;6.18;;;3.15;;
75087;SDS011;63664;44.868;40.600;2023-06-10T12:16:36;7.68;;;3.38;;
75087;SDS011;63664;44.868;40.600;2023-06-10T12:19:04;8.55;;;3.70;;
75087;SDS011;63664;44.868;40.600;2023-06-10T12:21:33;7.95;;;4.10;;
75087;SDS011;63664;44.868;40.600;2023-06-10T12:24:08;9.13;;;3.60;;
75087;SDS011;63664;44.868;40.600;2023-06-10T12:26:41;7.85;;;3.83;;
75087;SDS011;63664;44.868;40.600;2023-06-10T12:29:20;7.38;;;3.70;;
75087;SDS011;63664;44.868;40.600;2023-06-10T12:31:54;8.02;;;4.38;;
75087;SDS011;63664;44.868;40.600;2023-06-10T12:34:38;8.27;;;3.83;;
75087;SDS011;63664;44.868;40.600;2023-06-10T12:37:11;7.30;;;4.35;;
75087;SDS011;63664;44.868;40.600;2023-06-10T12:39:50;9.27;;;4.75;;
75087;SDS011;63664;44.868;40.600;2023-06-10T12:42:24;8.30;;;4.57;;
75087;SDS011;63664;44.868;40.600;2023-06-10T12:44:57;8.38;;;5.15;;
75087;SDS011;63664;44.868;40.600;2023-06-10T12:50:01;8.85;;;4.65;;
75087;SDS011;63664;44.868;40.600;2023-06-10T12:52:31;8.10;;;4.47;;
75087;SDS011;63664;44.868;40.600;2023-06-10T12:55:00;8.82;;;4.00;;
75087;SDS011;63664;44.868;40.600;2023-06-10T12:57:29;9.02;;;4.43;;
75087;SDS011;63664;44.868;40.600;2023-06-10T12:59:59;9.18;;;4.85;;
75087;SDS011;63664;44.868;40.600;2023-06-10T13:02:30;10.50;;;5.57;;
75087;SDS011;63664;44.868;40.600;2023-06-10T13:04:59;11.48;;;6.05;;
75087;SDS011;63664;44.868;40.600;2023-06-10T13:07:28;10.38;;;6.03;;
75087;SDS011;63664;44.868;40.600;2023-06-10T13:10:01;9.68;;;5.35;;
75087;SDS011;63664;44.868;40.600;2023-06-10T13:12:30;10.55;;;5.07;;
75087;SDS011;63664;44.868;40.600;2023-06-10T13:14:57;10.48;;;5.00;;
75087;SDS011;63664;44.868;40.600;2023-06-10T13:17:23;11.30;;;5.35;;
75087;SDS011;63664;44.868;40.600;2023-06-10T13:19:52;12.13;;;5.72;;
75087;SDS011;63664;44.868;40.600;2023-06-10T13:22:23;10.05;;;5.35;;
75087;SDS011;63664;44.868;40.600;2023-06-10T13:24:52;10.85;;;4.70;;
75087;SDS011;63664;44.868;40.600;2023-06-10T13:27:20;11.65;;;5.45;;
75087;SDS011;63664;44.868;40.600;2023-06-10T13:29:52;7.88;;;5.15;;
75087;SDS011;63664;44.868;40.600;2023-06-10T13:32:19;6.63;;;3.97;;
75087;SDS011;63664;44.868;40.600;2023-06-10T13:34:45;9.45;;;5.00;;
75087;SDS011;63664;44.868;40.600;2023-06-10T13:37:12;9.90;;;4.90;;
75087;SDS011;63664;44.868;40.600;2023-06-10T13:39:45;9.20;;;4.45;;
75087;SDS011;63664;44.868;40.600;2023-06-10T13:42:19;5.45;;;3.60;;
75087;SDS011;63664;44.868;40.600;2023-06-10T13:44:48;6.22;;;3.58;;
75087;SDS011;63664;44.868;40.600;2023-06-10T13:47:14;7.32;;;3.70;;
75087;SDS011;63664;44.868;40.600;2023-06-10T13:49:46;9.65;;;3.95;;
75087;SDS011;63664;44.868;40.600;2023-06-10T13:52:12;9.73;;;4.00;;
75087;SDS011;63664;44.868;40.600;2023-06-10T13:54:43;5.70;;;4.13;;
75087;SDS011;63664;44.868;40.600;2023-06-10T13:57:10;11.63;;;4.70;;
75087;SDS011;63664;44.868;40.600;2023-06-10T13:59:41;8.95;;;5.25;;
75087;SDS011;63664;44.868;40.600;2023-06-10T14:02:07;9.35;;;5.40;;
75087;SDS011;63664;44.868;40.600;2023-06-10T14:04:34;10.45;;;5.30;;
75087;SDS011;63664;44.868;40.600;2023-06-10T14:07:03;8.68;;;5.10;;
75087;SDS011;63664;44.868;40.600;2023-06-10T14:09:32;6.63;;;4.35;;
75087;SDS011;63664;44.868;40.600;2023-06-10T14:12:01;8.20;;;4.20;;
75087;SDS011;63664;44.868;40.600;2023-06-10T14:14:31;11.23;;;4.15;;
75087;SDS011;63664;44.868;40.600;2023-06-10T14:16:58;6.38;;;4.10;;
75087;SDS011;63664;44.868;40.600;2023-06-10T14:19:25;9.80;;;4.30;;
75087;SDS011;63664;44.868;40.600;2023-06-10T14:21:57;8.68;;;4.93;;
75087;SDS011;63664;44.868;40.600;2023-06-10T14:24:23;5.15;;;4.20;;
75087;SDS011;63664;44.868;40.600;2023-06-10T14:26:49;8.88;;;4.30;;
75087;SDS011;63664;44.868;40.600;2023-06-10T14:29:18;7.28;;;3.60;;
75087;SDS011;63664;44.868;40.600;2023-06-10T14:31:46;7.50;;;4.18;;
75087;SDS011;63664;44.868;40.600;2023-06-10T14:34:12;9.07;;;4.10;;
75087;SDS011;63664;44.868;40.600;2023-06-10T14:36:41;7.10;;;4.00;;
75087;SDS011;63664;44.868;40.600;2023-06-10T14:39:09;5.25;;;3.55;;
75087;SDS011;63664;44.868;40.600;2023-06-10T14:41:39;6.72;;;4.32;;
75087;SDS011;63664;44.868;40.600;2023-06-10T14:44:07;8.43;;;3.95;;
75087;SDS011;63664;44.868;40.600;2023-06-10T14:46:33;9.30;;;4.10;;
75087;SDS011;63664;44.868;40.600;2023-06-10T14:49:00;4.53;;;3.28;;
75087;SDS011;63664;44.868;40.600;2023-06-10T14:51:28;10.57;;;4.43;;
75087;SDS011;63664;44.868;40.600;2023-06-10T14:53:56;11.27;;;3.85;;
75087;SDS011;63664;44.868;40.600;2023-06-10T14:56:23;6.18;;;4.20;;
75087;SDS011;63664;44.868;40.600;2023-06-10T16:50:43;6.63;;;4.32;;
75087;SDS011;63664;44.868;40.600;2023-06-10T16:53:12;8.30;;;4.15;;
75087;SDS011;63664;44.868;40.600;2023-06-10T16:55:41;10.55;;;4.22;;
75087;SDS011;63664;44.868;40.600;2023-06-10T16:58:09;5.78;;;4.30;;
75087;SDS011;63664;44.868;40.600;2023-06-10T17:00:40;10.88;;;4.80;;
75087;SDS011;63664;44.868;40.600;2023-06-10T17:03:14;9.95;;;4.22;;
75087;SDS011;63664;44.868;40.600;2023-06-10T17:05:43;6.40;;;4.57;;
75087;SDS011;63664;44.868;40.600;2023-06-10T17:08:09;7.72;;;4.30;;
75087;SDS011;63664;44.868;40.600;2023-06-10T17:10:35;11.15;;;5.65;;
75087;SDS011;63664;44.868;40.600;2023-06-10T17:13:02;11.07;;;6.70;;
75087;SDS011;63664;44.868;40.600;2023-06-10T17:15:28;15.23;;;6.90;;
75087;SDS011;63664;44.868;40.600;2023-06-10T17:18:02;15.07;;;8.32;;
75087;SDS011;63664;44.868;40.600;2023-06-10T17:20:28;20.70;;;10.15;;
75087;SDS011;63664;44.868;40.600;2023-06-10T17:23:02;21.67;;;11.73;;
75087;SDS011;63664;44.868;40.600;2023-06-10T17:25:30;28.35;;;12.07;;
75087;SDS011;63664;44.868;40.600;2023-06-10T17:28:05;20.52;;;10.82;;
75087;SDS011;63664;44.868;40.600;2023-06-10T17:30:34;16.95;;;10.15;;
75087;SDS011;63664;44.868;40.600;2023-06-10T17:33:00;19.38;;;12.80;;
75087;SDS011;63664;44.868;40.600;2023-06-10T17:35:26;13.60;;;9.45;;
75087;SDS011;63664;44.868;40.600;2023-06-10T17:37:55;15.55;;;9.60;;
75087;SDS011;63664;44.868;40.600;2023-06-10T17:40:23;16.98;;;8.93;;
75087;SDS011;63664;44.868;40.600;2023-06-10T17:42:56;14.48;;;8.93;;
75087;SDS011;63664;44.868;40.600;2023-06-10T17:45:25;14.02;;;8.20;;
75087;SDS011;63664;44.868;40.600;2023-06-10T17:47:51;17.25;;;9.35;;
75087;SDS011;63664;44.868;40.600;2023-06-10T17:50:20;17.92;;;10.13;;
75087;SDS011;63664;44.868;40.600;2023-06-10T17:52:51;12.23;;;9.20;;
75087;SDS011;63664;44.868;40.600;2023-06-10T17:55:20;18.60;;;10.13;;
75087;SDS011;63664;44.868;40.600;2023-06-10T17:57:47;14.43;;;9.60;;
75087;SDS011;63664;44.868;40.600;2023-06-10T18:00:13;15.80;;;9.30;;
75087;SDS011;63664;44.868;40.600;2023-06-10T18:02:42;17.20;;;9.27;;
75087;SDS011;63664;44.868;40.600;2023-06-10T18:05:11;18.92;;;10.10;;
75087;SDS011;63664;44.868;40.600;2023-06-10T18:07:39;15.65;;;9.45;;
75087;SDS011;63664;44.868;40.600;2023-06-10T18:10:14;16.75;;;8.70;;
75087;SDS011;63664;44.868;40.600;2023-06-10T18:12:42;15.38;;;9.00;;
75087;SDS011;63664;44.868;40.600;2023-06-10T18:15:09;12.45;;;8.95;;
75087;SDS011;63664;44.868;40.600;2023-06-10T18:17:38;14.45;;;9.00;;
75087;SDS011;63664;44.868;40.600;2023-06-10T18:20:05;16.63;;;9.55;;
75087;SDS011;63664;44.868;40.600;2023-06-10T18:25:04;16.33;;;10.35;;
75087;SDS011;63664;44.868;40.600;2023-06-10T18:27:33;16.73;;;9.82;;
75087;SDS011;63664;44.868;40.600;2023-06-10T18:30:02;18.15;;;11.15;;
75087;SDS011;63664;44.868;40.600;2023-06-10T18:32:31;16.75;;;11.00;;
75087;SDS011;63664;44.868;40.600;2023-06-10T18:35:00;19.88;;;10.02;;
75087;SDS011;63664;44.868;40.600;2023-06-10T18:37:29;14.45;;;10.18;;
75087;SDS011;63664;44.868;40.600;2023-06-10T18:39:58;12.80;;;8.93;;
75087;SDS011;63664;44.868;40.600;2023-06-10T18:42:25;15.13;;;10.45;;
75087;SDS011;63664;44.868;40.600;2023-06-10T18:44:56;16.45;;;11.13;;
75087;SDS011;63664;44.868;40.600;2023-06-10T18:47:25;17.85;;;11.05;;
75087;SDS011;63664;44.868;40.600;2023-06-10T18:49:52;21.98;;;12.52;;
75087;SDS011;63664;44.868;40.600;2023-06-10T18:52:18;19.95;;;12.52;;
75087;SDS011;63664;44.868;40.600;2023-06-10T18:54:46;19.00;;;11.05;;
75087;SDS011;63664;44.868;40.600;2023-06-10T18:57:13;19.27;;;12.63;;
75087;SDS011;63664;44.868;40.600;2023-06-10T18:59:40;14.13;;;10.90;;
75087;SDS011;63664;44.868;40.600;2023-06-10T19:02:11;19.15;;;11.73;;
75087;SDS011;63664;44.868;40.600;2023-06-10T19:04:37;17.73;;;11.48;;
75087;SDS011;63664;44.868;40.600;2023-06-10T19:07:04;18.15;;;11.57;;
75087;SDS011;63664;44.868;40.600;2023-06-10T19:09:32;17.55;;;11.05;;
75087;SDS011;63664;44.868;40.600;2023-06-10T19:12:01;18.30;;;11.52;;
75087;SDS011;63664;44.868;40.600;2023-06-10T19:14:27;20.33;;;10.68;;
75087;SDS011;63664;44.868;40.600;2023-06-10T19:16:56;17.23;;;10.32;;
75087;SDS011;63664;44.868;40.600;2023-06-10T19:19:25;22.35;;;12.80;;
75087;SDS011;63664;44.868;40.600;2023-06-10T19:21:53;22.98;;;13.95;;
75087;SDS011;63664;44.868;40.600;2023-06-10T19:24:22;16.42;;;10.80;;
75087;SDS011;63664;44.868;40.600;2023-06-10T19:26:53;15.75;;;10.98;;
75087;SDS011;63664;44.868;40.600;2023-06-10T19:29:24;17.92;;;11.50;;
75087;SDS011;63664;44.868;40.600;2023-06-10T19:31:50;20.40;;;13.20;;
75087;SDS011;63664;44.868;40.600;2023-06-10T19:34:19;20.55;;;13.57;;
75087;SDS011;63664;44.868;40.600;2023-06-10T19:36:45;22.27;;;11.30;;
75087;SDS011;63664;44.868;40.600;2023-06-10T19:39:11;17.45;;;11.07;;
75087;SDS011;63664;44.868;40.600;2023-06-10T19:41:38;19.00;;;11.75;;
75087;SDS011;63664;44.868;40.600;2023-06-10T19:44:06;19.83;;;11.95;;
75087;SDS011;63664;44.868;40.600;2023-06-10T19:46:35;17.83;;;11.50;;
75087;SDS011;63664;44.868;40.600;2023-06-10T19:49:01;18.70;;;11.45;;
75087;SDS011;63664;44.868;40.600;2023-06-10T19:51:31;15.80;;;11.02;;
75087;SDS011;63664;44.868;40.600;2023-06-10T19:54:00;16.73;;;11.35;;
75087;SDS011;63664;44.868;40.600;2023-06-10T19:56:27;17.77;;;10.68;;
75087;SDS011;63664;44.868;40.600;2023-06-10T19:58:55;21.58;;;11.68;;
75087;SDS011;63664;44.868;40.600;2023-06-10T20:01:25;20.20;;;10.88;;
75087;SDS011;63664;44.868;40.600;2023-06-10T20:03:53;18.05;;;9.80;;
75087;SDS011;63664;44.868;40.600;2023-06-10T20:06:22;14.50;;;9.70;;
75087;SDS011;63664;44.868;40.600;2023-06-10T20:08:53;15.88;;;10.15;;
75087;SDS011;63664;44.868;40.600;2023-06-10T20:11:21;13.98;;;8.90;;
75087;SDS011;63664;44.868;40.600;2023-06-10T20:13:50;16.55;;;9.75;;
75087;SDS011;63664;44.868;40.600;2023-06-10T20:16:19;19.80;;;10.82;;
75087;SDS011;63664;44.868;40.600;2023-06-10T20:18:50;13.50;;;8.52;;
75087;SDS011;63664;44.868;40.600;2023-06-10T20:21:20;15.93;;;10.35;;
75087;SDS011;63664;44.868;40.600;2023-06-10T20:23:49;17.85;;;10.77;;
75087;SDS011;63664;44.868;40.600;2023-06-10T20:26:18;19.27;;;11.10;;
75087;SDS011;63664;44.868;40.600;2023-06-10T20:28:47;21.48;;;10.30;;
75087;SDS011;63664;44.868;40.600;2023-06-10T20:31:16;19.60;;;10.52;;
75087;SDS011;63664;44.868;40.600;2023-06-10T20:33:46;18.58;;;10.23;;